Terminal Aerodrome Forecast
Issued by NWS Blacksburg, VA

Home | Current Version | Previous Version | Text Only | Print | Product List | Glossary On
Versions: 1 2 3 4 5 6 7 8 9 10 11 12 13 14 15 16 17 18 19 20 21 22 23 24 25 26 27 28 29 30 31 32 33 34 35 36 37 38 39 40 41 42 43 44 45 46 47 48 49 50
675
FTUS41 KRNK 251140
TAFLYH
TAF
KLYH 251140Z 2512/2612 05003KT 1/2SM FG VV002 WS020/22025KT
      TEMPO 2512/2513 1SM BR SCT003
     FM251300 15004KT 5SM BR SCT003 OVC070
     FM251400 21011G19KT 6SM -SHRA OVC030
     FM251700 21011G19KT P6SM VCSH OVC050
     FM252100 22009KT P6SM OVC120
     FM260000 26005KT P6SM OVC150=

USA.gov is the U.S. government's official web portal to all federal, state and local government web resources and services.